Terminal Aerodrome Forecast
Issued by NWS Goodland, KS

Home | Current Version | Previous Version | Text Only | Print | Product List | Glossary On
Versions: 1 2 3 4 5 6 7 8 9 10 11 12 13 14 15 16 17 18 19 20 21 22 23
000
FTUS43 KGLD 202129 AAB
TAFGLD
TAF AMD
KGLD 202129Z 2021/2118 15015G23KT P6SM VCSH OVC050
      TEMPO 2021/2101 2SM SHRA SCT015 OVC025
     FM210100 13015KT 6SM -RA OVC015
     FM210400 12015KT 5SM -RA OVC005=

USA.gov is the U.S. government's official web portal to all federal, state and local government web resources and services.